createdAt,value
2023-03-27T00:01:30.773Z,37.80
2023-03-27T00:04:02.296Z,38.18
2023-03-27T00:06:34.577Z,38.32
2023-03-27T00:09:04.013Z,38.47
2023-03-27T00:11:33.217Z,38.25
2023-03-27T00:14:04.470Z,38.29
2023-03-27T00:16:32.935Z,38.31
2023-03-27T00:19:01.233Z,38.03
2023-03-27T00:21:35.430Z,37.86
2023-03-27T00:24:04.014Z,37.51
2023-03-27T00:26:32.599Z,37.54
2023-03-27T00:29:04.498Z,37.58
2023-03-27T00:31:36.463Z,37.39
2023-03-27T00:34:04.568Z,37.24
2023-03-27T00:36:34.140Z,37.51
2023-03-27T00:39:02.454Z,37.49
2023-03-27T00:41:31.168Z,37.24
2023-03-27T00:43:59.665Z,37.59
2023-03-27T00:46:44.067Z,37.61
2023-03-27T00:49:12.358Z,37.56
2023-03-27T00:51:41.756Z,37.49
2023-03-27T00:54:10.976Z,38.03
2023-03-27T00:56:40.273Z,37.99
2023-03-27T00:59:10.859Z,38.06
2023-03-27T01:01:40.035Z,38.10
2023-03-27T01:04:09.221Z,38.19
2023-03-27T01:06:37.779Z,38.05
2023-03-27T01:09:09.412Z,38.14
2023-03-27T01:11:54.504Z,37.95
2023-03-27T01:14:37.691Z,37.74
2023-03-27T01:17:30.921Z,37.52
2023-03-27T01:20:27.521Z,37.52
2023-03-27T01:23:35.923Z,37.61
2023-03-27T01:26:14.906Z,37.81
2023-03-27T01:29:18.217Z,37.79
2023-03-27T01:31:58.621Z,38.54
2023-03-27T01:34:41.269Z,39.12
2023-03-27T01:37:47.883Z,38.56
2023-03-27T01:40:25.426Z,37.75
2023-03-27T01:43:04.465Z,37.79
2023-03-27T01:45:42.836Z,37.78
2023-03-27T01:48:14.345Z,37.89
2023-03-27T01:50:48.690Z,37.96
2023-03-27T01:53:34.281Z,37.76
2023-03-27T01:56:13.741Z,37.79
2023-03-27T01:58:46.670Z,39.42
2023-03-27T02:01:18.266Z,39.23
2023-03-27T02:03:53.050Z,38.76
2023-03-27T02:06:24.003Z,38.71
2023-03-27T02:09:18.122Z,38.74
2023-03-27T02:11:57.595Z,38.42
2023-03-27T02:14:31.181Z,37.97
2023-03-27T02:17:02.190Z,38.22
2023-03-27T02:19:35.225Z,38.18
2023-03-27T02:22:03.710Z,38.01
2023-03-27T02:24:43.554Z,37.72
2023-03-27T02:27:21.335Z,37.58
2023-03-27T02:30:10.494Z,37.52
2023-03-27T02:33:17.281Z,37.26
2023-03-27T02:35:52.106Z,37.51
2023-03-27T02:38:38.612Z,37.46
2023-03-27T02:41:41.198Z,37.46
2023-03-27T02:44:52.615Z,37.25
2023-03-27T02:47:29.055Z,37.24
2023-03-27T02:50:05.540Z,37.67
2023-03-27T02:52:42.753Z,37.51
2023-03-27T02:55:34.347Z,38.33
2023-03-27T02:58:05.607Z,39.39
2023-03-27T03:00:52.339Z,39.24
2023-03-27T03:04:04.216Z,38.97
2023-03-27T03:06:45.582Z,39.04
2023-03-27T03:09:15.101Z,38.95
2023-03-27T03:11:48.993Z,38.82
2023-03-27T03:14:21.406Z,38.38
2023-03-27T03:16:49.571Z,38.17
2023-03-27T03:19:25.293Z,38.42
2023-03-27T03:21:54.413Z,38.51
2023-03-27T03:24:22.661Z,38.73
2023-03-27T03:26:54.400Z,39.20
2023-03-27T03:29:22.490Z,39.11
2023-03-27T03:32:01.526Z,39.41
2023-03-27T03:34:30.739Z,39.30
2023-03-27T03:36:59.802Z,39.07
2023-03-27T03:39:33.240Z,38.53
2023-03-27T03:42:02.792Z,37.89
2023-03-27T03:44:31.693Z,38.01
2023-03-27T03:47:01.648Z,38.48
2023-03-27T03:49:30.027Z,38.30
2023-03-27T03:52:03.545Z,38.33
2023-03-27T03:54:33.861Z,38.29
2023-03-27T03:57:03.309Z,38.10
2023-03-27T03:59:32.714Z,38.25
2023-03-27T04:02:29.776Z,38.28
2023-03-27T04:05:12.653Z,38.59
2023-03-27T04:07:42.502Z,38.87
2023-03-27T04:10:41.689Z,38.88
2023-03-27T04:13:21.278Z,39.09
2023-03-27T04:16:15.760Z,39.62
2023-03-27T04:18:55.546Z,40.48
2023-03-27T04:21:26.959Z,40.69
2023-03-27T04:24:02.370Z,40.53
2023-03-27T04:26:43.513Z,40.55
2023-03-27T04:29:32.074Z,40.68
2023-03-27T04:32:00.178Z,40.76
2023-03-27T04:34:49.303Z,41.37
2023-03-27T04:37:29.056Z,41.49
2023-03-27T04:40:05.714Z,41.09
2023-03-27T04:42:42.644Z,39.76
2023-03-27T04:45:13.139Z,38.74
2023-03-27T04:47:46.581Z,37.83
2023-03-27T04:50:15.487Z,36.88
2023-03-27T04:52:44.065Z,36.16
2023-03-27T04:55:12.543Z,35.23
2023-03-27T04:57:46.329Z,34.46
2023-03-27T05:00:19.767Z,33.37
2023-03-27T05:02:48.701Z,32.18
2023-03-27T05:05:22.440Z,31.65
2023-03-27T05:08:30.080Z,37.14
2023-03-27T05:10:58.751Z,34.03
2023-03-27T05:13:30.677Z,32.77
2023-03-27T05:16:01.909Z,31.73
2023-03-27T05:18:32.039Z,31.16
2023-03-27T05:21:06.036Z,30.54
2023-03-27T05:23:35.004Z,30.09
2023-03-27T05:26:03.597Z,29.20
2023-03-27T05:28:48.940Z,28.09
2023-03-27T05:31:17.373Z,27.09
2023-03-27T05:33:54.973Z,26.59
2023-03-27T05:36:23.306Z,26.31
2023-03-27T05:38:53.276Z,25.47
2023-03-27T05:41:43.370Z,24.82
2023-03-27T05:44:12.335Z,24.03
2023-03-27T05:46:43.027Z,23.65
2023-03-27T05:49:20.340Z,23.33
2023-03-27T05:51:52.730Z,23.93
2023-03-27T05:54:22.547Z,23.91
2023-03-27T05:57:10.925Z,24.23
2023-03-27T05:59:43.771Z,24.08
2023-03-27T06:02:21.325Z,24.57
2023-03-27T06:05:04.591Z,24.07
2023-03-27T06:07:42.988Z,23.75
2023-03-27T06:10:13.852Z,23.24
2023-03-27T06:13:08.906Z,23.29
2023-03-27T06:15:46.909Z,22.54
2023-03-27T06:18:38.477Z,22.32
2023-03-27T06:21:08.987Z,21.66
2023-03-27T06:23:37.896Z,21.80
2023-03-27T06:26:11.324Z,21.62
2023-03-27T06:28:42.554Z,21.00
2023-03-27T06:31:12.099Z,21.18
2023-03-27T06:33:48.994Z,21.08
2023-03-27T06:36:38.045Z,20.64
2023-03-27T06:39:08.417Z,20.52
2023-03-27T06:41:36.817Z,20.97
2023-03-27T06:44:07.987Z,20.81
2023-03-27T06:46:48.730Z,20.54
2023-03-27T06:49:36.142Z,20.22
2023-03-27T06:52:12.121Z,19.67
2023-03-27T06:54:40.875Z,19.79
2023-03-27T06:57:08.940Z,19.72
2023-03-27T06:59:58.836Z,19.47
2023-03-27T07:02:45.007Z,19.28
2023-03-27T07:05:40.745Z,19.69
2023-03-27T07:10:56.278Z,19.75
2023-03-27T07:13:35.886Z,19.73
2023-03-27T07:16:07.054Z,19.57
2023-03-27T07:18:36.257Z,19.35
2023-03-27T07:21:06.057Z,19.02
2023-03-27T07:23:34.282Z,19.49
2023-03-27T07:26:05.090Z,19.61
2023-03-27T07:28:52.138Z,19.26
2023-03-27T07:31:36.500Z,19.78
2023-03-27T07:34:09.450Z,19.62
2023-03-27T07:37:09.737Z,19.54
2023-03-27T07:39:41.955Z,18.79
2023-03-27T07:42:10.314Z,18.53
2023-03-27T07:44:53.404Z,17.99
2023-03-27T07:47:21.428Z,17.95
2023-03-27T07:49:49.497Z,17.52
2023-03-27T07:52:18.323Z,17.40
2023-03-27T07:54:52.200Z,17.18
2023-03-27T07:57:23.377Z,16.99
2023-03-27T07:59:57.468Z,17.00
2023-03-27T08:02:45.766Z,16.85
2023-03-27T08:05:14.521Z,16.80
2023-03-27T08:07:48.243Z,16.79
2023-03-27T08:10:27.856Z,16.94
2023-03-27T08:13:01.624Z,17.03
2023-03-27T08:15:29.867Z,16.78
2023-03-27T08:17:59.942Z,16.53
2023-03-27T08:20:30.683Z,16.24
2023-03-27T08:23:00.868Z,16.41
2023-03-27T08:25:33.360Z,16.52
2023-03-27T08:28:03.000Z,16.25
2023-03-27T08:30:31.796Z,16.11
2023-03-27T08:33:00.589Z,16.38
2023-03-27T08:35:28.931Z,16.45
2023-03-27T08:37:57.578Z,16.93
2023-03-27T08:40:58.902Z,16.75
2023-03-27T08:43:43.036Z,16.70
2023-03-27T08:46:24.222Z,17.22
2023-03-27T08:48:57.810Z,17.70
2023-03-27T08:51:47.784Z,18.31
2023-03-27T08:54:19.115Z,18.83
2023-03-27T08:56:49.033Z,19.01
2023-03-27T08:59:19.936Z,19.10
2023-03-27T09:02:07.181Z,18.80
2023-03-27T09:04:38.794Z,18.27
2023-03-27T09:07:14.031Z,18.01
2023-03-27T09:10:10.197Z,17.84
2023-03-27T09:13:07.811Z,17.21
2023-03-27T09:15:58.508Z,16.77
2023-03-27T09:18:28.074Z,17.21
2023-03-27T09:20:59.201Z,17.64
2023-03-27T09:23:31.888Z,18.04
2023-03-27T09:26:23.768Z,17.92
2023-03-27T09:29:05.663Z,17.44
2023-03-27T09:31:47.041Z,16.92
2023-03-27T09:34:17.976Z,16.96
2023-03-27T09:36:49.769Z,16.81
2023-03-27T09:39:22.876Z,17.03
2023-03-27T09:41:58.668Z,17.98
2023-03-27T09:44:37.006Z,18.12
2023-03-27T09:47:09.557Z,17.96
2023-03-27T09:49:38.721Z,17.41
2023-03-27T09:52:08.808Z,17.75
2023-03-27T09:54:52.890Z,17.40
2023-03-27T09:57:22.652Z,17.27
2023-03-27T10:00:20.679Z,17.34
2023-03-27T10:03:08.127Z,16.86
2023-03-27T10:05:38.958Z,16.45
2023-03-27T10:08:31.444Z,16.33
2023-03-27T10:11:08.839Z,16.35
2023-03-27T10:13:57.619Z,16.48
2023-03-27T10:16:28.010Z,16.70
2023-03-27T10:19:06.711Z,16.78
2023-03-27T10:21:42.766Z,17.10
2023-03-27T10:24:31.765Z,17.03
2023-03-27T10:27:24.921Z,17.14
2023-03-27T10:30:28.208Z,17.78
2023-03-27T10:33:02.476Z,18.24
2023-03-27T10:35:51.126Z,18.05
2023-03-27T10:38:25.265Z,18.57
2023-03-27T10:41:28.760Z,18.33
2023-03-27T10:43:58.824Z,18.86
2023-03-27T10:46:28.777Z,18.79
2023-03-27T10:49:12.678Z,18.73
2023-03-27T10:51:47.562Z,19.00
2023-03-27T10:54:38.023Z,19.90
2023-03-27T10:57:10.900Z,20.39
2023-03-27T10:59:50.779Z,20.28
2023-03-27T11:02:43.805Z,20.13
2023-03-27T11:05:18.890Z,20.28
2023-03-27T11:07:57.267Z,20.25
2023-03-27T11:10:42.384Z,20.04
2023-03-27T11:13:15.436Z,19.78
2023-03-27T11:15:59.640Z,19.49
2023-03-27T11:19:03.342Z,19.52
2023-03-27T11:21:39.186Z,18.82
2023-03-27T11:24:15.384Z,18.77
2023-03-27T11:27:11.021Z,19.02
2023-03-27T11:29:47.558Z,18.60
2023-03-27T11:32:23.459Z,18.35
2023-03-27T11:35:04.247Z,18.54
2023-03-27T11:37:47.204Z,18.39
2023-03-27T11:40:20.202Z,19.01
2023-03-27T11:42:49.033Z,19.55
2023-03-27T11:45:19.211Z,19.03
2023-03-27T11:48:09.367Z,19.45
2023-03-27T11:50:53.292Z,19.68
2023-03-27T11:53:39.905Z,19.39
2023-03-27T11:56:32.807Z,19.39
2023-03-27T11:59:29.611Z,20.95
2023-03-27T12:02:34.510Z,20.87
2023-03-27T12:05:17.238Z,21.19
2023-03-27T12:08:07.264Z,20.43
2023-03-27T12:10:38.769Z,20.09
2023-03-27T12:13:40.664Z,20.13
2023-03-27T12:16:23.199Z,20.74
2023-03-27T12:19:28.945Z,20.45
2023-03-27T12:22:52.864Z,20.51
2023-03-27T12:25:45.409Z,20.78
2023-03-27T12:28:35.093Z,20.51
2023-03-27T12:31:49.556Z,21.09
2023-03-27T12:34:42.203Z,20.84
2023-03-27T12:37:12.300Z,20.66
2023-03-27T12:40:29.103Z,20.43
2023-03-27T12:43:17.946Z,20.00
2023-03-27T12:46:16.138Z,19.95
2023-03-27T12:48:52.818Z,20.04
2023-03-27T12:51:35.740Z,20.25
2023-03-27T12:54:28.868Z,19.81
2023-03-27T12:56:58.751Z,19.67
2023-03-27T12:59:29.512Z,19.88
2023-03-27T13:02:04.063Z,19.75
2023-03-27T13:05:10.719Z,19.91
2023-03-27T13:07:53.493Z,20.49
2023-03-27T13:11:04.498Z,20.64
2023-03-27T13:14:02.837Z,20.35
2023-03-27T13:16:41.126Z,20.07
2023-03-27T13:19:37.411Z,20.17
2023-03-27T13:22:43.628Z,20.25
2023-03-27T13:25:31.798Z,20.32
2023-03-27T13:28:35.595Z,19.96
2023-03-27T13:31:47.169Z,19.96
2023-03-27T13:34:27.650Z,19.66
2023-03-27T13:37:11.363Z,19.43
2023-03-27T13:40:01.620Z,20.38
2023-03-27T13:42:39.112Z,20.35
2023-03-27T13:45:20.577Z,19.93
2023-03-27T13:48:26.551Z,19.39
2023-03-27T13:51:17.998Z,19.38
2023-03-27T13:54:08.529Z,19.32
2023-03-27T13:56:56.092Z,19.56
2023-03-27T14:00:37.644Z,19.65
2023-03-27T14:03:21.648Z,19.33
2023-03-27T14:06:05.196Z,20.41
2023-03-27T14:09:02.175Z,19.87
2023-03-27T14:12:19.105Z,19.75
2023-03-27T14:15:19.198Z,19.73
2023-03-27T14:18:00.511Z,19.78
2023-03-27T14:20:40.595Z,19.77
2023-03-27T14:23:26.532Z,19.83
2023-03-27T14:26:20.553Z,19.43
2023-03-27T14:28:51.718Z,19.60
2023-03-27T14:31:28.991Z,19.68
2023-03-27T14:34:25.009Z,19.93
2023-03-27T14:37:39.041Z,20.09
2023-03-27T14:40:33.478Z,19.93
2023-03-27T14:43:03.634Z,20.70
2023-03-27T14:45:35.759Z,20.24
2023-03-27T14:48:10.039Z,20.04
2023-03-27T14:50:47.828Z,20.52
2023-03-27T14:53:18.541Z,20.35
2023-03-27T14:56:37.068Z,20.38
2023-03-27T14:59:28.227Z,20.18
2023-03-27T15:02:00.054Z,20.15
2023-03-27T15:04:30.103Z,20.29
2023-03-27T15:07:18.869Z,20.37
2023-03-27T15:10:07.665Z,20.46
2023-03-27T15:12:58.496Z,20.53
2023-03-27T15:15:43.009Z,20.89
2023-03-27T15:18:33.102Z,20.84
2023-03-27T15:21:04.385Z,20.94
2023-03-27T15:23:45.014Z,21.09
2023-03-27T15:26:27.325Z,21.24
2023-03-27T15:29:01.781Z,21.35
2023-03-27T15:31:30.946Z,21.48
2023-03-27T15:34:06.187Z,21.45
2023-03-27T15:36:35.176Z,21.55
2023-03-27T15:39:05.136Z,21.47
2023-03-27T15:41:33.807Z,21.33
2023-03-27T15:44:13.141Z,21.65
2023-03-27T15:47:01.155Z,21.57
2023-03-27T15:49:37.006Z,21.45
2023-03-27T15:52:30.243Z,21.48
2023-03-27T15:54:59.387Z,21.49
2023-03-27T15:57:29.606Z,21.46
2023-03-27T16:00:02.871Z,21.65
2023-03-27T16:02:47.197Z,21.78
2023-03-27T16:05:16.319Z,21.82
2023-03-27T16:07:47.238Z,22.08
2023-03-27T16:10:29.408Z,21.78
2023-03-27T16:13:02.755Z,21.29
2023-03-27T16:15:34.788Z,21.68
2023-03-27T16:18:13.575Z,21.40
2023-03-27T16:20:42.150Z,21.28
2023-03-27T16:23:10.301Z,21.35
2023-03-27T16:25:38.266Z,21.87
2023-03-27T16:28:07.493Z,21.89
2023-03-27T16:30:38.914Z,22.09
2023-03-27T16:33:15.993Z,22.29
2023-03-27T16:35:45.458Z,21.83
2023-03-27T16:38:14.117Z,21.70
2023-03-27T16:40:43.529Z,21.98
2023-03-27T16:43:11.910Z,21.90
2023-03-27T16:45:41.149Z,22.00
2023-03-27T16:48:10.277Z,22.05
2023-03-27T16:50:38.389Z,21.97
2023-03-27T16:53:06.978Z,22.08
2023-03-27T16:55:34.893Z,22.22
2023-03-27T16:58:03.648Z,22.16
2023-03-27T17:00:31.913Z,22.02
2023-03-27T17:03:19.970Z,22.43
2023-03-27T17:05:48.277Z,22.36
2023-03-27T17:08:18.540Z,22.21
2023-03-27T17:10:47.824Z,22.15
2023-03-27T17:13:18.045Z,22.65
2023-03-27T17:15:51.299Z,22.66
2023-03-27T17:18:20.665Z,22.58
2023-03-27T17:20:48.804Z,23.06
2023-03-27T17:25:59.134Z,26.76
2023-03-27T17:28:28.247Z,24.50
2023-03-27T17:31:03.994Z,24.32
2023-03-27T17:33:32.802Z,24.38
2023-03-27T17:36:00.236Z,24.59
2023-03-27T17:38:27.860Z,24.77
2023-03-27T17:40:54.684Z,24.72
2023-03-27T17:43:21.269Z,24.78
2023-03-27T17:45:48.952Z,24.28
2023-03-27T17:48:16.394Z,24.55
2023-03-27T17:50:49.831Z,24.91
2023-03-27T17:53:27.043Z,24.63
2023-03-27T17:55:53.522Z,24.47
2023-03-27T17:58:21.701Z,24.43
2023-03-27T18:00:48.577Z,24.84
2023-03-27T18:03:16.091Z,24.66
2023-03-27T18:05:43.137Z,24.83
2023-03-27T18:08:11.743Z,24.82
2023-03-27T18:10:44.386Z,25.06
2023-03-27T18:13:11.949Z,25.58
2023-03-27T18:15:40.063Z,25.40
2023-03-27T18:18:07.302Z,25.46
2023-03-27T18:20:34.021Z,25.19
2023-03-27T18:23:00.839Z,25.70
2023-03-27T18:25:27.685Z,25.31
2023-03-27T18:27:54.185Z,25.93
2023-03-27T18:30:23.249Z,25.51
2023-03-27T18:32:50.054Z,25.18
2023-03-27T18:35:18.867Z,25.35
2023-03-27T18:37:46.198Z,25.35
2023-03-27T18:40:17.733Z,25.11
2023-03-27T18:43:04.184Z,25.16
2023-03-27T18:45:31.703Z,25.45
2023-03-27T18:47:58.727Z,25.58
2023-03-27T18:50:33.030Z,25.60
2023-03-27T18:53:00.988Z,25.32
2023-03-27T18:55:27.729Z,25.35
2023-03-27T18:57:54.463Z,25.44
2023-03-27T19:00:21.528Z,25.76
2023-03-27T19:02:55.904Z,25.65
2023-03-27T19:05:22.492Z,25.93
2023-03-27T19:07:49.240Z,25.50
2023-03-27T19:10:17.523Z,26.13
2023-03-27T19:12:49.082Z,26.19
2023-03-27T19:15:34.640Z,26.49
2023-03-27T19:18:27.777Z,25.70
2023-03-27T19:21:18.282Z,26.09
2023-03-27T19:24:02.149Z,26.31
2023-03-27T19:26:36.662Z,26.13
2023-03-27T19:29:04.311Z,25.57
2023-03-27T19:31:30.918Z,25.75
2023-03-27T19:33:58.234Z,25.74
2023-03-27T19:36:26.521Z,25.19
2023-03-27T19:38:53.454Z,25.58
2023-03-27T19:41:23.493Z,25.63
2023-03-27T19:43:51.149Z,25.80
2023-03-27T19:46:17.938Z,25.29
2023-03-27T19:48:46.773Z,25.48
2023-03-27T19:51:22.267Z,25.72
2023-03-27T19:53:54.790Z,25.61
2023-03-27T19:56:24.627Z,25.23
2023-03-27T19:58:51.728Z,25.25
2023-03-27T20:01:21.555Z,25.60
2023-03-27T20:03:48.632Z,25.79
2023-03-27T20:06:18.975Z,25.98
2023-03-27T20:08:45.656Z,25.98
2023-03-27T20:11:14.132Z,25.82
2023-03-27T20:13:53.151Z,25.63
2023-03-27T20:16:25.491Z,25.87
2023-03-27T20:19:02.599Z,25.58
2023-03-27T20:21:33.265Z,25.65
2023-03-27T20:24:00.664Z,25.53
2023-03-27T20:26:38.168Z,26.20
2023-03-27T20:29:12.366Z,26.00
2023-03-27T20:31:40.168Z,25.71
2023-03-27T20:34:06.912Z,25.45
2023-03-27T20:36:34.236Z,25.51
2023-03-27T20:39:06.466Z,25.80
2023-03-27T20:41:38.073Z,25.44
2023-03-27T20:44:14.437Z,25.57
2023-03-27T20:46:46.569Z,25.76
2023-03-27T20:49:33.520Z,26.00
2023-03-27T20:52:09.731Z,26.19
2023-03-27T20:54:36.288Z,26.00
2023-03-27T20:57:03.564Z,25.74
2023-03-27T20:59:30.808Z,25.78
2023-03-27T21:01:59.868Z,26.13
2023-03-27T21:04:28.995Z,26.33
2023-03-27T21:06:55.959Z,26.51
2023-03-27T21:09:25.423Z,26.48
2023-03-27T21:11:54.536Z,26.17
2023-03-27T21:14:21.395Z,26.33
2023-03-27T21:16:49.044Z,26.51
2023-03-27T21:19:16.434Z,26.89
2023-03-27T21:21:43.184Z,26.90
2023-03-27T21:24:09.953Z,26.96
2023-03-27T21:26:37.509Z,26.89
2023-03-27T21:29:10.536Z,26.60
2023-03-27T21:31:39.344Z,26.71
2023-03-27T21:34:06.229Z,26.69
2023-03-27T21:36:34.960Z,26.78
2023-03-27T21:39:02.137Z,26.43
2023-03-27T21:41:28.973Z,26.46
2023-03-27T21:43:55.648Z,27.06
2023-03-27T21:46:22.494Z,26.95
2023-03-27T21:48:49.473Z,26.92
2023-03-27T21:51:16.175Z,27.41
2023-03-27T21:53:42.767Z,27.31
2023-03-27T21:56:10.274Z,26.97
2023-03-27T21:58:37.295Z,26.94
2023-03-27T22:01:06.418Z,26.74
2023-03-27T22:03:34.307Z,27.14
2023-03-27T22:06:11.763Z,27.20
2023-03-27T22:08:40.196Z,27.63
2023-03-27T22:11:07.175Z,27.29
2023-03-27T22:13:37.127Z,27.23
2023-03-27T22:16:13.085Z,27.20
2023-03-27T22:18:41.974Z,27.17
2023-03-27T22:21:21.499Z,26.90
2023-03-27T22:23:52.943Z,27.18
2023-03-27T22:26:20.641Z,26.44
2023-03-27T22:28:49.199Z,26.96
2023-03-27T22:31:16.938Z,27.03
2023-03-27T22:33:46.368Z,27.08
2023-03-27T22:36:15.261Z,26.80
2023-03-27T22:38:42.629Z,26.93
2023-03-27T22:41:11.193Z,27.49
2023-03-27T22:43:39.784Z,28.26
2023-03-27T22:46:13.996Z,28.58
2023-03-27T22:48:43.100Z,27.95
2023-03-27T22:51:10.412Z,27.67
2023-03-27T22:53:37.397Z,28.05
2023-03-27T22:56:05.171Z,28.04
2023-03-27T22:58:32.763Z,28.57
2023-03-27T23:00:59.875Z,28.53
2023-03-27T23:03:27.247Z,28.82
2023-03-27T23:05:54.774Z,28.54
2023-03-27T23:08:23.882Z,28.46
2023-03-27T23:11:01.257Z,28.03
2023-03-27T23:13:33.532Z,28.21
2023-03-27T23:16:02.740Z,27.90
2023-03-27T23:18:30.127Z,28.24
2023-03-27T23:21:00.281Z,28.04
2023-03-27T23:23:28.092Z,28.37
2023-03-27T23:25:54.956Z,27.93
2023-03-27T23:28:23.570Z,28.01
2023-03-27T23:30:54.157Z,28.28
2023-03-27T23:33:36.697Z,28.14
2023-03-27T23:36:23.362Z,28.33
2023-03-27T23:38:52.616Z,28.56
2023-03-27T23:41:19.929Z,28.57
2023-03-27T23:43:46.632Z,28.35
2023-03-27T23:46:13.730Z,28.15
2023-03-27T23:48:41.849Z,28.09
2023-03-27T23:51:11.879Z,27.88
2023-03-27T23:53:42.104Z,27.84
2023-03-27T23:56:09.360Z,27.98
2023-03-27T23:58:36.512Z,28.21
